Time;durP1;ratioP1;P1;durP2;ratioP2;P2;SDS_P1;SDS_P2;PMS_P1;PMS_P2;Temp;Humidity;BMP_temperature;BMP_pressure;BME280_temperature;BME280_humidity;BME280_pressure;Samples;Min_cycle;Max_cycle;Signal;HPM_P1;HPM_P2
2022/11/21 00:00:56;;;;;;;1.17;0.50;;;9.10;99.90;;;;;;5033998;28;20512;-84
2022/11/21 00:03:23;;;;;;;1.27;0.55;;;9.20;99.90;;;;;;5016841;28;20229;-85
2022/11/21 00:05:49;;;;;;;0.60;0.30;;;9.30;99.90;;;;;;5020751;28;20025;-84
2022/11/21 00:08:17;;;;;;;0.55;0.40;;;9.30;99.90;;;;;;5015115;28;20099;-84
2022/11/21 00:10:43;;;;;;;1.65;0.40;;;9.40;99.90;;;;;;5038093;28;20021;-84
2022/11/21 00:13:14;;;;;;;0.77;0.60;;;9.40;99.90;;;;;;5032920;28;20025;-85
2022/11/21 00:15:40;;;;;;;1.55;0.63;;;9.40;99.90;;;;;;5038957;28;20079;-85
2022/11/21 00:18:06;;;;;;;1.90;0.80;;;9.40;99.90;;;;;;5016201;28;20205;-85
2022/11/21 00:20:34;;;;;;;1.73;0.60;;;9.40;99.90;;;;;;5001015;28;20030;-85
2022/11/21 00:23:00;;;;;;;2.13;0.88;;;9.40;99.90;;;;;;5030740;28;20024;-85
2022/11/21 00:25:25;;;;;;;1.83;0.60;;;9.50;99.90;;;;;;4994445;28;21542;-85
2022/11/21 00:27:52;;;;;;;1.88;0.60;;;9.50;99.90;;;;;;5022559;28;20048;-84
2022/11/21 00:30:17;;;;;;;2.08;0.60;;;9.50;99.90;;;;;;5052873;28;20029;-84
2022/11/21 00:32:43;;;;;;;0.90;0.60;;;9.50;99.90;;;;;;5035310;28;20373;-85
2022/11/21 00:35:08;;;;;;;1.70;0.87;;;9.50;99.90;;;;;;5031137;28;20401;-85
2022/11/21 00:37:34;;;;;;;1.35;0.70;;;9.50;99.90;;;;;;5020161;28;20206;-85
2022/11/21 00:40:00;;;;;;;1.47;0.77;;;9.50;99.90;;;;;;5018813;28;20056;-85
2022/11/21 00:42:25;;;;;;;1.25;0.60;;;9.50;99.90;;;;;;5007600;28;20533;-85
2022/11/21 00:44:51;;;;;;;2.10;0.70;;;9.50;99.90;;;;;;5007595;28;20822;-85
2022/11/21 00:47:17;;;;;;;2.30;0.85;;;9.50;99.90;;;;;;5022388;28;20442;-85
2022/11/21 00:49:43;;;;;;;3.87;0.90;;;9.50;99.90;;;;;;5010051;28;20701;-85
2022/11/21 00:52:08;;;;;;;1.10;0.60;;;9.50;99.90;;;;;;5021846;28;20280;-86
2022/11/21 00:54:34;;;;;;;2.57;0.70;;;9.40;99.90;;;;;;5005082;28;20890;-85
2022/11/21 00:57:00;;;;;;;3.38;1.00;;;9.40;99.90;;;;;;5009969;28;20048;-85
2022/11/21 00:59:26;;;;;;;2.05;0.70;;;9.30;99.90;;;;;;5053872;28;20634;-85
2022/11/21 01:01:51;;;;;;;1.70;0.63;;;9.30;99.90;;;;;;5043880;28;20040;-85
2022/11/21 01:04:17;;;;;;;1.97;0.90;;;9.20;99.90;;;;;;5043503;28;20380;-85
2022/11/21 01:06:43;;;;;;;1.30;0.60;;;9.20;99.90;;;;;;5015604;28;20023;-85
2022/11/21 01:09:08;;;;;;;1.73;0.70;;;9.10;99.90;;;;;;5039356;28;20468;-85
2022/11/21 01:11:34;;;;;;;2.03;0.80;;;9.00;99.90;;;;;;5034174;28;20021;-85
2022/11/21 01:14:00;;;;;;;2.53;0.90;;;9.00;99.90;;;;;;5020473;28;20033;-84
2022/11/21 01:16:27;;;;;;;2.13;0.98;;;8.90;99.90;;;;;;5027592;28;20655;-85
2022/11/21 01:18:52;;;;;;;0.80;0.75;;;8.90;99.90;;;;;;5028000;28;20025;-85
2022/11/21 01:21:21;;;;;;;1.33;0.67;;;8.80;99.90;;;;;;5046796;28;20021;-85
2022/11/21 01:23:47;;;;;;;2.05;0.80;;;8.80;99.90;;;;;;5005221;28;20060;-85
2022/11/21 01:26:18;;;;;;;2.00;0.93;;;8.80;99.90;;;;;;5001647;28;20036;-85
2022/11/21 01:28:44;;;;;;;2.05;0.88;;;8.70;99.90;;;;;;5010911;28;20116;-85
2022/11/21 01:31:18;;;;;;;2.33;1.20;;;8.70;99.90;;;;;;4999519;28;20063;-85
2022/11/21 01:33:45;;;;;;;2.37;0.80;;;8.80;99.90;;;;;;5026980;28;20074;-84
2022/11/21 01:36:15;;;;;;;3.72;1.10;;;8.80;99.90;;;;;;4998246;28;20116;-84
2022/11/21 01:38:43;;;;;;;1.80;1.05;;;8.80;99.90;;;;;;5014145;28;20029;-85
2022/11/21 01:41:11;;;;;;;2.35;0.90;;;8.80;99.90;;;;;;5048131;28;20048;-84
2022/11/21 01:43:37;;;;;;;2.28;1.13;;;8.80;99.90;;;;;;4990768;28;20457;-85
2022/11/21 01:46:08;;;;;;;2.77;1.10;;;8.90;99.90;;;;;;5008612;28;20110;-84
2022/11/21 01:48:39;;;;;;;2.47;1.20;;;8.90;99.90;;;;;;5024858;28;20090;-85
2022/11/21 01:51:12;;;;;;;2.22;1.05;;;8.90;99.90;;;;;;5035608;28;20539;-85
2022/11/21 01:53:40;;;;;;;2.15;0.90;;;8.90;99.90;;;;;;5000966;28;20031;-85
2022/11/21 01:56:06;;;;;;;3.70;1.90;;;9.00;99.90;;;;;;5006734;28;20040;-85
2022/11/21 01:58:33;;;;;;;2.17;1.20;;;9.00;99.90;;;;;;4998477;28;20113;-86
2022/11/21 02:01:00;;;;;;;3.53;1.20;;;9.00;99.90;;;;;;5015807;28;20025;-84
2022/11/21 02:03:30;;;;;;;2.78;1.23;;;9.00;99.90;;;;;;5059741;28;20028;-85
2022/11/21 02:05:57;;;;;;;3.38;1.30;;;9.00;99.90;;;;;;5009922;28;20172;-87
2022/11/21 02:08:24;;;;;;;3.20;1.10;;;9.00;99.90;;;;;;5008325;28;20127;-84
2022/11/21 02:10:56;;;;;;;3.33;1.30;;;9.10;99.90;;;;;;5051118;28;20036;-87
2022/11/21 02:13:22;;;;;;;1.65;1.05;;;9.10;99.90;;;;;;5023112;28;20025;-87
2022/11/21 02:15:48;;;;;;;3.50;1.27;;;9.10;99.90;;;;;;5029682;28;20036;-89
2022/11/21 02:18:14;;;;;;;2.87;1.13;;;9.10;99.90;;;;;;5015472;28;20314;-89
2022/11/21 02:20:43;;;;;;;2.92;1.40;;;9.10;99.90;;;;;;5021861;28;20083;-85
2022/11/21 02:23:18;;;;;;;4.03;1.50;;;9.10;99.90;;;;;;5032020;28;20032;-86
2022/11/21 02:25:44;;;;;;;2.47;1.20;;;9.10;99.90;;;;;;5027840;28;20041;-84
2022/11/21 02:28:19;;;;;;;1.95;1.05;;;9.10;99.90;;;;;;5008473;28;20332;-84
2022/11/21 02:30:45;;;;;;;3.85;1.00;;;9.10;99.90;;;;;;5009249;28;20025;-84
2022/11/21 02:33:12;;;;;;;2.78;0.90;;;9.10;99.90;;;;;;5029740;28;20053;-85
2022/11/21 02:35:38;;;;;;;2.27;0.90;;;9.10;99.90;;;;;;5057899;28;20025;-88
2022/11/21 02:38:20;;;;;;;3.78;1.02;;;9.10;99.90;;;;;;5024732;28;20384;-86
2022/11/21 02:41:03;;;;;;;2.67;1.10;;;9.10;99.90;;;;;;5034251;28;20070;-84
2022/11/21 02:43:34;;;;;;;2.08;1.10;;;9.10;99.90;;;;;;5032344;28;20029;-83
2022/11/21 02:45:59;;;;;;;2.35;1.05;;;9.10;99.90;;;;;;5005808;28;20025;-87
2022/11/21 02:48:25;;;;;;;3.53;0.90;;;9.10;99.90;;;;;;5011427;28;20024;-83
2022/11/21 02:50:51;;;;;;;4.23;1.20;;;9.10;99.90;;;;;;5016516;28;20025;-87
2022/11/21 02:53:18;;;;;;;2.75;1.08;;;9.10;99.90;;;;;;5010342;28;20521;-90
2022/11/21 02:55:44;;;;;;;2.10;1.05;;;9.10;99.90;;;;;;5021382;28;20040;-83
2022/11/21 02:58:11;;;;;;;2.13;1.00;;;9.10;99.90;;;;;;5019465;28;20231;-84
2022/11/21 03:00:39;;;;;;;2.40;1.00;;;9.10;99.90;;;;;;5018402;28;20604;-84
2022/11/21 03:03:05;;;;;;;2.33;1.20;;;9.10;99.90;;;;;;5028468;28;20637;-84
2022/11/21 03:05:31;;;;;;;1.70;1.00;;;9.20;99.90;;;;;;5033449;28;20021;-84
2022/11/21 03:07:57;;;;;;;2.83;1.00;;;9.10;99.90;;;;;;5030080;28;20509;-84
2022/11/21 03:10:23;;;;;;;2.03;0.98;;;9.10;99.90;;;;;;5006790;28;20035;-84
2022/11/21 03:12:48;;;;;;;2.75;1.00;;;9.10;99.90;;;;;;5039064;28;20017;-84
2022/11/21 03:15:15;;;;;;;1.73;1.00;;;9.10;99.90;;;;;;5033917;28;20250;-84
2022/11/21 03:17:42;;;;;;;2.28;0.93;;;9.20;99.90;;;;;;5045764;28;20032;-84
2022/11/21 03:20:08;;;;;;;3.25;1.45;;;9.10;99.90;;;;;;5036745;28;20032;-85
2022/11/21 03:22:34;;;;;;;3.33;1.20;;;9.20;99.90;;;;;;5046298;28;20445;-85
2022/11/21 03:25:00;;;;;;;3.17;1.47;;;9.20;99.90;;;;;;5022032;28;20013;-84
2022/11/21 03:27:25;;;;;;;3.25;1.00;;;9.10;99.90;;;;;;5016848;28;20025;-83
2022/11/21 03:29:52;;;;;;;2.43;1.00;;;9.10;99.90;;;;;;5055525;28;20024;-84
2022/11/21 03:32:18;;;;;;;1.75;0.90;;;9.10;99.90;;;;;;5057028;28;20037;-83
2022/11/21 03:34:44;;;;;;;3.22;1.40;;;9.10;99.90;;;;;;4995774;28;20021;-86
2022/11/21 03:37:09;;;;;;;2.00;0.87;;;9.10;99.90;;;;;;5028351;28;20025;-87
2022/11/21 03:39:35;;;;;;;2.80;0.85;;;9.10;99.90;;;;;;5018658;28;20243;-83
2022/11/21 03:42:01;;;;;;;1.10;0.63;;;9.10;99.90;;;;;;5026136;28;20034;-84
2022/11/21 03:44:28;;;;;;;2.28;0.80;;;9.10;99.90;;;;;;5038862;28;20411;-83
2022/11/21 03:46:53;;;;;;;1.20;0.67;;;9.10;99.90;;;;;;5032611;28;20435;-83
2022/11/21 03:49:19;;;;;;;1.20;0.70;;;9.00;99.90;;;;;;5011928;28;20026;-83
2022/11/21 03:51:44;;;;;;;2.07;0.90;;;9.00;99.90;;;;;;5009277;28;20019;-83
2022/11/21 03:54:10;;;;;;;2.65;0.82;;;9.00;99.90;;;;;;5029091;28;20485;-84
2022/11/21 03:56:38;;;;;;;1.80;0.80;;;8.90;99.90;;;;;;5025666;28;20026;-83
2022/11/21 03:59:04;;;;;;;3.05;0.90;;;8.90;99.90;;;;;;5039138;28;20163;-84
2022/11/21 04:01:30;;;;;;;2.03;1.08;;;8.90;99.90;;;;;;5019725;28;20176;-85
2022/11/21 04:03:56;;;;;;;1.45;0.80;;;9.00;99.90;;;;;;5046102;28;20502;-86
2022/11/21 04:06:22;;;;;;;1.13;0.77;;;8.90;99.90;;;;;;5011480;28;20029;-85
2022/11/21 04:08:48;;;;;;;2.90;0.80;;;8.90;99.90;;;;;;5033612;28;20398;-85
2022/11/21 04:11:15;;;;;;;3.03;1.40;;;8.90;99.90;;;;;;5024561;28;20075;-83
2022/11/21 04:13:40;;;;;;;2.87;0.90;;;8.90;99.90;;;;;;5017818;28;20147;-83
2022/11/21 04:16:06;;;;;;;2.88;0.90;;;8.90;99.90;;;;;;5029585;28;20017;-83
2022/11/21 04:18:33;;;;;;;2.63;1.33;;;8.90;99.90;;;;;;5034316;28;20532;-85
2022/11/21 04:21:04;;;;;;;2.40;0.82;;;8.90;99.90;;;;;;5030295;28;20056;-84
2022/11/21 04:23:30;;;;;;;2.83;0.90;;;8.90;99.90;;;;;;5051032;28;20246;-85
2022/11/21 04:25:55;;;;;;;1.75;0.88;;;8.90;99.90;;;;;;5009690;28;20387;-85
2022/11/21 04:28:21;;;;;;;2.00;0.90;;;8.90;99.90;;;;;;5037389;28;20031;-85
2022/11/21 04:30:47;;;;;;;4.82;1.13;;;8.80;99.90;;;;;;5017087;28;20443;-83
2022/11/21 04:33:14;;;;;;;1.63;0.80;;;8.80;99.90;;;;;;5007634;28;20432;-85
2022/11/21 04:35:42;;;;;;;2.60;1.00;;;8.80;99.90;;;;;;5002327;28;20448;-84
2022/11/21 04:38:07;;;;;;;2.53;1.00;;;8.80;99.90;;;;;;5039233;28;20100;-86
2022/11/21 04:40:34;;;;;;;1.10;0.80;;;8.80;99.90;;;;;;5030786;28;20079;-88
2022/11/21 04:43:00;;;;;;;1.90;0.70;;;8.80;99.90;;;;;;5012671;28;20283;-84
2022/11/21 04:45:25;;;;;;;2.88;0.80;;;8.70;99.90;;;;;;5017288;28;20032;-84
2022/11/21 04:47:51;;;;;;;1.50;0.80;;;8.70;99.90;;;;;;4996789;28;20342;-85
2022/11/21 04:50:18;;;;;;;1.35;0.85;;;8.70;99.90;;;;;;5024200;28;20071;-85
2022/11/21 04:52:55;;;;;;;1.92;0.80;;;8.70;99.90;;;;;;5017863;28;20518;-87
2022/11/21 04:55:23;;;;;;;1.43;0.80;;;8.70;99.90;;;;;;5025262;28;20203;-84
2022/11/21 04:57:49;;;;;;;1.45;0.73;;;8.60;99.90;;;;;;5015950;28;20258;-84
2022/11/21 05:00:16;;;;;;;1.35;0.70;;;8.60;99.90;;;;;;5020778;28;20047;-84
2022/11/21 05:02:42;;;;;;;1.70;0.73;;;8.60;99.90;;;;;;5003148;28;20059;-87
2022/11/21 05:05:08;;;;;;;4.13;0.90;;;8.60;99.90;;;;;;5014618;28;20026;-84
2022/11/21 05:07:34;;;;;;;3.28;0.93;;;8.60;99.90;;;;;;5004291;28;20689;-84
2022/11/21 05:10:00;;;;;;;1.52;0.70;;;8.60;99.90;;;;;;5022662;28;20028;-84
2022/11/21 05:15:10;;;;;;;1.85;0.93;;;8.60;99.90;;;;;;5046945;28;20022;-84
2022/11/21 05:17:36;;;;;;;2.17;0.90;;;8.60;99.90;;;;;;5015561;28;20040;-84
2022/11/21 05:20:02;;;;;;;3.10;0.80;;;8.60;99.90;;;;;;5053218;28;20068;-86
2022/11/21 05:22:27;;;;;;;1.90;0.90;;;8.60;99.90;;;;;;4997437;28;20033;-84
2022/11/21 05:24:53;;;;;;;2.77;0.97;;;8.60;99.90;;;;;;5015170;28;20509;-85
2022/11/21 05:27:18;;;;;;;1.13;0.70;;;8.60;99.90;;;;;;5020529;28;20579;-84
2022/11/21 05:29:44;;;;;;;1.70;0.80;;;8.60;99.90;;;;;;5005303;28;20358;-86
2022/11/21 05:32:10;;;;;;;2.78;0.90;;;8.60;99.90;;;;;;5001733;28;20032;-85
2022/11/21 05:34:36;;;;;;;1.60;0.90;;;8.60;99.90;;;;;;5013442;28;20026;-86
2022/11/21 05:37:01;;;;;;;2.30;0.93;;;8.60;99.90;;;;;;5000853;28;20025;-85
2022/11/21 05:39:27;;;;;;;1.52;1.00;;;8.60;99.90;;;;;;4997657;28;20025;-84
2022/11/21 05:41:53;;;;;;;1.37;0.80;;;8.60;99.90;;;;;;5056703;28;20025;-85
2022/11/21 05:44:19;;;;;;;2.10;0.80;;;8.60;99.90;;;;;;5016398;28;20280;-84
2022/11/21 05:46:44;;;;;;;2.47;0.90;;;8.60;99.90;;;;;;5014743;28;20393;-85
2022/11/21 05:49:10;;;;;;;1.88;0.82;;;8.60;99.90;;;;;;5002624;28;20021;-85
2022/11/21 05:51:36;;;;;;;2.43;0.80;;;8.60;99.90;;;;;;5011184;28;20014;-85
2022/11/21 05:54:02;;;;;;;2.45;0.90;;;8.50;99.90;;;;;;5020269;28;20048;-85
2022/11/21 05:56:28;;;;;;;1.40;1.00;;;8.50;99.90;;;;;;5036892;28;20221;-87
2022/11/21 05:58:54;;;;;;;1.00;0.80;;;8.50;99.90;;;;;;5002270;28;20163;-84
2022/11/21 06:04:04;;;;;;;3.55;1.20;;;8.40;99.90;;;;;;5018690;28;20037;-85
2022/11/21 06:06:30;;;;;;;1.80;1.10;;;8.30;99.90;;;;;;4988217;28;20465;-85
2022/11/21 06:08:56;;;;;;;1.67;1.03;;;8.30;99.90;;;;;;4991104;28;20201;-85
2022/11/21 06:11:21;;;;;;;1.93;1.30;;;8.20;99.90;;;;;;5015983;28;20057;-85
2022/11/21 06:13:47;;;;;;;3.67;1.30;;;8.20;99.90;;;;;;5009595;28;20640;-85
2022/11/21 06:16:15;;;;;;;2.30;0.90;;;8.20;99.90;;;;;;5010281;28;20056;-84
2022/11/21 06:18:43;;;;;;;3.10;0.90;;;8.10;99.90;;;;;;4988851;28;21261;-85
2022/11/21 06:21:17;;;;;;;2.75;0.90;;;8.10;99.90;;;;;;5031685;28;20037;-86
2022/11/21 06:23:43;;;;;;;2.92;0.88;;;8.10;99.90;;;;;;4976661;28;20853;-85
2022/11/21 06:26:17;;;;;;;1.60;0.80;;;8.10;99.90;;;;;;5018715;28;20507;-87
2022/11/21 06:28:43;;;;;;;2.80;0.83;;;8.00;99.90;;;;;;5019712;28;20033;-87
2022/11/21 06:31:12;;;;;;;1.85;0.80;;;7.90;99.90;;;;;;5044669;28;20104;-87
2022/11/21 06:33:40;;;;;;;1.83;0.70;;;7.90;99.90;;;;;;4983758;28;20854;-85
2022/11/21 06:36:13;;;;;;;2.13;0.90;;;7.90;99.90;;;;;;5011991;28;20006;-85
2022/11/21 06:38:39;;;;;;;2.25;0.80;;;7.90;99.90;;;;;;5032659;28;20317;-84
2022/11/21 06:41:06;;;;;;;1.70;0.87;;;7.80;99.90;;;;;;5005949;28;20059;-85
2022/11/21 06:43:32;;;;;;;1.92;0.90;;;7.80;99.90;;;;;;5029329;28;20061;-84
2022/11/21 06:45:57;;;;;;;1.43;0.70;;;7.80;99.90;;;;;;5016712;28;20580;-84
2022/11/21 06:48:24;;;;;;;2.03;0.70;;;7.70;99.90;;;;;;5046694;28;20039;-85
2022/11/21 06:50:50;;;;;;;1.50;0.70;;;7.70;99.90;;;;;;5021410;28;20504;-85
2022/11/21 06:53:15;;;;;;;2.63;0.80;;;7.60;99.90;;;;;;5017675;28;20052;-84
2022/11/21 06:55:41;;;;;;;2.13;0.80;;;7.60;99.90;;;;;;4969164;28;20291;-84
2022/11/21 06:58:07;;;;;;;5.37;1.10;;;7.60;99.90;;;;;;5020698;28;20231;-84
2022/11/21 07:00:32;;;;;;;1.38;1.00;;;7.50;99.90;;;;;;5022276;28;20017;-84
2022/11/21 07:03:02;;;;;;;2.80;1.00;;;7.50;99.90;;;;;;5019320;28;20021;-86
2022/11/21 07:05:28;;;;;;;2.38;1.00;;;7.50;99.90;;;;;;5003974;28;20037;-85
2022/11/21 07:08:01;;;;;;;3.85;1.52;;;7.40;99.90;;;;;;4996889;28;20116;-84
2022/11/21 07:10:28;;;;;;;2.42;1.23;;;7.40;99.90;;;;;;5012109;28;20499;-84
2022/11/21 07:15:46;;;;;;;2.27;1.13;;;7.30;99.90;;;;;;5041921;28;20373;-84
2022/11/21 07:18:12;;;;;;;2.63;1.40;;;7.30;99.90;;;;;;5032059;28;20205;-85
2022/11/21 07:20:39;;;;;;;3.53;1.40;;;7.30;99.90;;;;;;5021298;28;20634;-85
2022/11/21 07:23:05;;;;;;;2.50;1.25;;;7.30;99.90;;;;;;5026964;28;20370;-86
2022/11/21 07:25:31;;;;;;;2.95;1.30;;;7.30;99.90;;;;;;4994996;28;20040;-83
2022/11/21 07:28:01;;;;;;;3.47;1.30;;;7.20;99.90;;;;;;5027391;28;20528;-84
2022/11/21 07:30:27;;;;;;;4.50;2.00;;;7.20;99.90;;;;;;4997635;28;20499;-85
2022/11/21 07:33:01;;;;;;;3.45;1.52;;;7.20;99.90;;;;;;5003909;28;20107;-86
2022/11/21 07:35:27;;;;;;;3.70;1.20;;;7.20;99.90;;;;;;5046464;28;20021;-85
2022/11/21 07:37:53;;;;;;;3.33;1.60;;;7.20;99.90;;;;;;5022564;28;20481;-85
2022/11/21 07:40:19;;;;;;;3.67;1.40;;;7.20;99.90;;;;;;5014130;28;20052;-85
2022/11/21 07:42:46;;;;;;;2.80;1.20;;;7.20;99.90;;;;;;5014667;28;20244;-85
2022/11/21 07:45:12;;;;;;;2.38;1.20;;;7.10;99.90;;;;;;5036989;28;20437;-84
2022/11/21 07:47:38;;;;;;;3.83;1.37;;;7.10;99.90;;;;;;5017612;28;20258;-85
2022/11/21 07:50:08;;;;;;;2.60;1.10;;;7.10;99.90;;;;;;5030617;28;20061;-85
2022/11/21 07:52:34;;;;;;;2.40;1.10;;;7.10;99.90;;;;;;5021902;28;20017;-84
2022/11/21 07:55:03;;;;;;;2.80;1.15;;;7.20;99.90;;;;;;5015138;28;20085;-84
2022/11/21 07:57:29;;;;;;;2.77;1.20;;;7.20;99.90;;;;;;4993246;28;20120;-85
2022/11/21 07:59:55;;;;;;;2.63;0.95;;;7.20;99.90;;;;;;5017604;28;20141;-84
2022/11/21 08:02:23;;;;;;;3.15;1.50;;;7.20;99.90;;;;;;5031939;28;20039;-85
2022/11/21 08:04:49;;;;;;;1.90;1.13;;;7.20;99.90;;;;;;5016178;28;20018;-84
2022/11/21 08:07:16;;;;;;;2.35;1.00;;;7.30;99.90;;;;;;5039294;28;20403;-84
2022/11/21 08:09:42;;;;;;;2.28;1.23;;;7.30;99.90;;;;;;5016070;28;20027;-84
2022/11/21 08:12:09;;;;;;;1.33;0.87;;;7.30;99.90;;;;;;5033359;28;20049;-84
2022/11/21 08:14:35;;;;;;;2.47;0.88;;;7.30;99.90;;;;;;4990505;28;20086;-84
2022/11/21 08:17:01;;;;;;;2.40;1.00;;;7.30;99.90;;;;;;5013762;28;20238;-84
2022/11/21 08:19:27;;;;;;;2.83;1.30;;;7.40;99.90;;;;;;5010495;28;20033;-84
2022/11/21 08:21:52;;;;;;;4.37;1.20;;;7.40;99.90;;;;;;5017540;28;20750;-84
2022/11/21 08:24:18;;;;;;;1.98;1.00;;;7.40;99.90;;;;;;5030534;28;20378;-84
2022/11/21 08:26:44;;;;;;;1.57;0.90;;;7.50;99.90;;;;;;5007413;28;20060;-84
2022/11/21 08:29:11;;;;;;;3.63;1.50;;;7.60;99.90;;;;;;5012556;28;20042;-84
2022/11/21 08:31:37;;;;;;;2.17;0.95;;;7.60;99.90;;;;;;5030249;28;20043;-86
2022/11/21 08:34:03;;;;;;;2.55;1.20;;;7.60;99.90;;;;;;5020740;28;20761;-84
2022/11/21 08:36:29;;;;;;;3.17;1.20;;;7.60;99.90;;;;;;5050698;28;20064;-85
2022/11/21 08:38:55;;;;;;;2.33;1.10;;;7.70;99.90;;;;;;5017157;28;20091;-84
2022/11/21 08:44:05;;;;;;;2.87;1.00;;;7.70;99.90;;;;;;5007967;28;20025;-84
2022/11/21 08:46:34;;;;;;;2.60;1.10;;;7.80;99.90;;;;;;5003415;28;20032;-84
2022/11/21 08:49:00;;;;;;;2.38;1.13;;;7.80;99.90;;;;;;5016059;28;20155;-85
2022/11/21 08:51:25;;;;;;;2.87;1.17;;;7.80;99.90;;;;;;5011445;28;20100;-85
2022/11/21 08:53:51;;;;;;;2.63;1.02;;;7.90;99.90;;;;;;5018576;28;20089;-86
2022/11/21 08:56:17;;;;;;;3.60;1.60;;;7.90;99.90;;;;;;5024589;28;20064;-85
2022/11/21 08:58:43;;;;;;;4.38;1.20;;;7.90;99.90;;;;;;5044340;28;20110;-85
2022/11/21 09:01:08;;;;;;;3.07;1.20;;;8.10;99.90;;;;;;4987073;28;20033;-84
2022/11/21 09:03:34;;;;;;;3.90;1.33;;;8.10;99.90;;;;;;5015867;28;20029;-84
2022/11/21 09:06:00;;;;;;;2.90;1.10;;;8.20;99.90;;;;;;5038218;28;20028;-85
2022/11/21 09:08:25;;;;;;;3.88;1.40;;;8.30;99.90;;;;;;5014851;28;20017;-85
2022/11/21 09:10:51;;;;;;;2.87;1.30;;;8.40;99.90;;;;;;5005747;28;20025;-85
2022/11/21 09:13:17;;;;;;;3.15;1.27;;;8.50;99.90;;;;;;5018514;28;20029;-85
2022/11/21 09:18:26;;;;;;;3.92;1.20;;;8.80;99.90;;;;;;5037155;28;20021;-84
2022/11/21 09:20:52;;;;;;;3.67;1.20;;;9.00;99.90;;;;;;5013507;28;20022;-85
2022/11/21 09:23:25;;;;;;;2.27;1.10;;;9.20;99.90;;;;;;5045784;28;20527;-84
2022/11/21 09:25:51;;;;;;;1.73;1.00;;;9.30;99.90;;;;;;5042880;28;20021;-85
2022/11/21 09:28:16;;;;;;;4.03;1.30;;;9.50;99.90;;;;;;5013019;28;20025;-84
2022/11/21 09:30:42;;;;;;;3.72;1.40;;;9.60;99.90;;;;;;5012512;28;20029;-85
2022/11/21 09:33:14;;;;;;;5.37;1.33;;;9.70;99.90;;;;;;5012813;28;20525;-84
2022/11/21 09:35:39;;;;;;;2.55;1.10;;;9.80;99.90;;;;;;5020577;28;20352;-84
2022/11/21 09:38:05;;;;;;;4.20;1.40;;;10.00;99.90;;;;;;5020266;28;20173;-85
2022/11/21 09:40:32;;;;;;;3.83;1.33;;;10.10;99.90;;;;;;5026384;28;20052;-85
2022/11/21 09:43:23;;;;;;;3.35;1.27;;;10.20;99.90;;;;;;5006983;28;20194;-85
2022/11/21 09:45:51;;;;;;;2.05;1.00;;;10.40;99.90;;;;;;5030861;28;20029;-86
2022/11/21 09:48:32;;;;;;;2.17;1.10;;;10.60;99.90;;;;;;5023766;28;20492;-85
2022/11/21 09:51:12;;;;;;;1.63;1.00;;;10.70;99.90;;;;;;5025992;28;20021;-85
2022/11/21 09:54:05;;;;;;;1.73;0.90;;;10.90;99.90;;;;;;5018569;28;20021;-86
2022/11/21 09:56:35;;;;;;;1.60;0.90;;;11.10;99.90;;;;;;5027008;28;20554;-86
2022/11/21 09:59:32;;;;;;;1.48;1.08;;;11.20;99.90;;;;;;5034033;28;20107;-85
2022/11/21 10:01:58;;;;;;;1.58;0.93;;;11.50;99.90;;;;;;5010647;28;20360;-86
2022/11/21 10:04:26;;;;;;;3.30;1.10;;;11.70;99.90;;;;;;5024815;28;20114;-86
2022/11/21 10:06:54;;;;;;;2.58;1.05;;;11.90;99.90;;;;;;5013990;28;20148;-85
2022/11/21 10:09:27;;;;;;;2.40;1.20;;;12.10;99.90;;;;;;4998951;28;20034;-85
2022/11/21 10:14:51;;;;;;;2.73;1.20;;;12.60;99.90;;;;;;5028449;28;20037;-84
2022/11/21 10:17:20;;;;;;;4.03;1.00;;;12.90;99.90;;;;;;5011346;28;20033;-84
2022/11/21 10:20:18;;;;;;;2.35;1.00;;;13.10;99.90;;;;;;5010586;28;20481;-86
2022/11/21 10:23:23;;;;;;;3.30;1.15;;;13.40;99.90;;;;;;5033240;28;20422;-85
2022/11/21 10:25:56;;;;;;;2.60;1.10;;;13.60;99.90;;;;;;4956285;28;20164;-86
2022/11/21 10:28:33;;;;;;;3.63;1.00;;;13.70;99.90;;;;;;4972016;28;20839;-85
2022/11/21 10:31:01;;;;;;;2.03;1.00;;;13.80;99.90;;;;;;4992705;28;20040;-85
2022/11/21 10:33:33;;;;;;;2.10;1.10;;;13.90;99.90;;;;;;5030365;28;20029;-83
2022/11/21 10:36:06;;;;;;;3.08;1.20;;;13.90;99.90;;;;;;5037276;28;20041;-86
2022/11/21 10:38:37;;;;;;;2.95;1.30;;;14.00;99.90;;;;;;5039978;28;20032;-86
2022/11/21 10:41:17;;;;;;;5.10;1.40;;;13.90;99.90;;;;;;5026037;28;20496;-84
2022/11/21 10:46:54;;;;;;;3.15;1.50;;;13.70;99.90;;;;;;5016856;28;20053;-86
2022/11/21 10:49:20;;;;;;;3.10;1.40;;;13.60;99.90;;;;;;5009136;28;20321;-84
2022/11/21 10:51:59;;;;;;;3.37;1.40;;;13.40;99.90;;;;;;5037545;28;20124;-85
2022/11/21 10:54:34;;;;;;;2.88;1.40;;;13.20;99.90;;;;;;5029156;28;20037;-85
2022/11/21 10:57:11;;;;;;;3.80;1.50;;;13.00;99.90;;;;;;5028591;28;20574;-86
2022/11/21 10:59:37;;;;;;;5.35;1.40;;;12.80;99.90;;;;;;5017543;28;20025;-86
2022/11/21 11:02:23;;;;;;;2.73;1.50;;;12.60;99.90;;;;;;5021627;28;20029;-84
2022/11/21 11:05:08;;;;;;;3.80;1.50;;;12.40;99.90;;;;;;5016683;28;20098;-84
2022/11/21 11:07:34;;;;;;;4.70;1.55;;;12.30;99.90;;;;;;5044238;28;20025;-86
2022/11/21 11:10:22;;;;;;;3.20;1.50;;;12.10;99.90;;;;;;5032816;28;20040;-86
2022/11/21 11:15:38;;;;;;;2.53;1.45;;;11.90;99.90;;;;;;5048856;28;20385;-85
2022/11/21 11:18:05;;;;;;;3.65;1.58;;;11.70;99.90;;;;;;5019234;28;20021;-86
2022/11/21 11:20:40;;;;;;;4.00;1.40;;;11.70;99.90;;;;;;5010516;28;20068;-86
2022/11/21 11:23:25;;;;;;;3.00;1.60;;;11.60;99.90;;;;;;5020678;28;20321;-86
2022/11/21 11:26:01;;;;;;;3.00;1.65;;;11.60;99.90;;;;;;5010481;28;20068;-84
2022/11/21 11:28:34;;;;;;;2.92;1.60;;;11.50;99.90;;;;;;5012134;28;20377;-86
2022/11/21 11:31:00;;;;;;;3.60;1.42;;;11.50;99.90;;;;;;5042326;28;20029;-85
2022/11/21 11:33:40;;;;;;;2.90;1.50;;;11.40;99.90;;;;;;5020389;28;20024;-85
2022/11/21 11:36:14;;;;;;;4.82;1.88;;;11.50;99.90;;;;;;5009107;28;20540;-84
2022/11/21 11:38:53;;;;;;;2.78;1.85;;;11.50;99.90;;;;;;5044101;28;20045;-86
2022/11/21 11:47:29;;;;;;;3.08;1.67;;;11.50;99.90;;;;;;5018942;28;20048;-86
2022/11/21 11:47:57;;;;;;;4.43;2.08;;;11.60;99.90;;;;;;5021992;28;20029;-87
2022/11/21 11:50:37;;;;;;;3.05;1.98;;;11.60;99.90;;;;;;5050093;28;20522;-84
2022/11/21 11:53:17;;;;;;;2.83;1.77;;;11.70;99.90;;;;;;5013668;28;20032;-86
2022/11/21 11:55:51;;;;;;;3.42;1.92;;;11.70;99.90;;;;;;5014715;28;20512;-86
2022/11/21 11:58:43;;;;;;;2.77;1.77;;;11.70;99.90;;;;;;5016637;28;20061;-85
2022/11/21 12:01:24;;;;;;;2.78;1.85;;;11.70;99.90;;;;;;5036084;28;20094;-86
2022/11/21 12:04:11;;;;;;;3.53;1.85;;;11.70;99.90;;;;;;5000200;28;20040;-84
2022/11/21 12:06:41;;;;;;;3.80;1.80;;;11.70;99.90;;;;;;5017088;28;20131;-84
2022/11/21 12:09:29;;;;;;;3.70;2.05;;;11.80;99.90;;;;;;5054556;28;20446;-86
2022/11/21 12:12:22;;;;;;;3.40;1.70;;;11.70;99.90;;;;;;5011652;28;20430;-87
2022/11/21 12:18:21;;;;;;;2.67;1.70;;;11.70;99.90;;;;;;5049025;28;20162;-85
2022/11/21 12:21:01;;;;;;;2.63;1.63;;;11.70;99.90;;;;;;5021126;28;20071;-84
2022/11/21 12:23:49;;;;;;;2.80;1.40;;;11.70;99.90;;;;;;5013924;28;20022;-87
2022/11/21 12:26:45;;;;;;;1.97;1.40;;;11.70;99.90;;;;;;5019310;28;20585;-86
2022/11/21 12:29:50;;;;;;;6.30;1.88;;;11.70;99.90;;;;;;5024039;28;20032;-86
2022/11/21 12:32:49;;;;;;;2.33;1.38;;;11.70;99.90;;;;;;5024014;28;20117;-86
2022/11/21 12:35:42;;;;;;;3.10;1.50;;;11.60;99.90;;;;;;5002407;28;20021;-86
2022/11/21 12:38:41;;;;;;;2.80;1.30;;;11.60;99.90;;;;;;5016205;28;20050;-85
2022/11/21 12:44:43;;;;;;;2.80;1.38;;;11.60;99.90;;;;;;5026149;28;20240;-86
2022/11/21 12:47:20;;;;;;;2.08;1.30;;;11.60;99.90;;;;;;5050182;28;20025;-85
2022/11/21 12:55:40;;;;;;;2.83;1.60;;;11.70;99.90;;;;;;5044610;28;20107;-86
2022/11/21 12:58:06;;;;;;;2.85;1.30;;;11.60;99.90;;;;;;5029334;28;20018;-87
2022/11/21 13:00:52;;;;;;;4.10;1.75;;;11.60;99.90;;;;;;4997646;28;20232;-84
2022/11/21 13:03:32;;;;;;;4.43;1.60;;;11.60;99.90;;;;;;5026518;28;20034;-86
2022/11/21 13:05:59;;;;;;;3.72;1.40;;;11.60;99.90;;;;;;5042723;28;20052;-86
2022/11/21 13:08:29;;;;;;;2.22;1.40;;;11.60;99.90;;;;;;5014292;28;20500;-85
2022/11/21 13:14:16;;;;;;;3.38;1.60;;;11.60;99.90;;;;;;5030191;28;20478;-86
2022/11/21 13:16:50;;;;;;;3.00;1.77;;;11.60;99.90;;;;;;5029248;28;20025;-86
2022/11/21 13:19:18;;;;;;;3.30;1.60;;;11.60;99.90;;;;;;5033452;28;20424;-86
2022/11/21 13:21:49;;;;;;;4.85;1.98;;;11.70;99.90;;;;;;5029823;28;20156;-84
2022/11/21 13:24:43;;;;;;;3.75;1.83;;;11.70;99.90;;;;;;5009534;28;20266;-86
2022/11/21 13:27:24;;;;;;;3.65;1.80;;;11.70;99.90;;;;;;5046152;28;20249;-85
2022/11/21 13:30:17;;;;;;;3.63;1.70;;;11.80;99.90;;;;;;5024087;28;20018;-86
2022/11/21 13:32:50;;;;;;;2.65;1.50;;;11.80;99.90;;;;;;5010385;28;20121;-86
2022/11/21 13:35:19;;;;;;;2.85;1.58;;;11.80;99.90;;;;;;5016967;28;20044;-83
2022/11/21 13:38:07;;;;;;;3.63;1.70;;;11.80;99.90;;;;;;5017000;28;20075;-85
2022/11/21 13:40:32;;;;;;;4.15;1.45;;;11.80;99.90;;;;;;5019771;28;20036;-85
2022/11/21 13:43:18;;;;;;;3.63;1.50;;;11.80;99.90;;;;;;5017048;28;20124;-87
2022/11/21 13:45:49;;;;;;;2.58;1.38;;;11.80;99.90;;;;;;5020325;28;20049;-86
2022/11/21 13:48:24;;;;;;;5.03;1.85;;;11.90;99.90;;;;;;5024594;28;20036;-87
2022/11/21 13:51:40;;;;;;;4.57;1.80;;;11.90;99.90;;;;;;5021091;28;20037;-85